Birmingham, AL

8:43 AM CDT en Septiembre 01, 2014 (GMT -0500)
Central Business District | Change Station
CLOSE
Current Station
Estación meteorológica personal
Location: Birmingham, AL
Altura: 636 ft
Estaciones meteorológicas cercanas

Alt 636 ft 33.52 °N, 86.81 °W | Updated 4 seconds ago

Mostly Cloudy
Muy nublado
79.6 ° F
Sensación térmica 83 ° F
N
1.1
Viento Variable Viento desde Oeste
Gusts 3.4 mph

Hoy
Alta -- | Baja -- ° F
--% Posibilidad de precipitaciones
Ayer
Alta -- | Baja -- ° F
Precip. -- pul
6:21 AM 7:12 PM
Creciente, 41% visible
Presión 30.12 pul
Visibilidad 10.0 Millas
Nubes Muy nublado 15000 ft
Muy nublado 25000 ft
Índice de calor 83 ° F
Punto de rocío 71 ° F
Humedad 75%
Precipitaciones 0.00 pul
Espesor de la nieve No disponible.
UV 1 de una escala de 12
Polen 9.70 de una escala de 12
Ozono Buena
PM2.5 Moderada
Flu Activity No disponible.
METAR KBHM 011253Z 21003KT 10SM BKN150 BKN250 26/22 A3014 RMK AO2 SLP198 T02560217 $

More Conditions Fewer Conditions

Presión 30.12 pul
Visibilidad 10.0 Millas
Nubes Muy nublado 15000 ft
Muy nublado 25000 ft
Índice de calor 83 ° F
Punto de rocío 71 ° F
Humedad 75%
Precipitaciones 0.00 pul
Espesor de la nieve No disponible.
UV 1 de una escala de 12
Polen 9.70 de una escala de 12
Ozono Buena
PM2.5 Moderada
Flu Activity No disponible.
METAR KBHM 011253Z 21003KT 10SM BKN150 BKN250 26/22 A3014 RMK AO2 SLP198 T02560217 $

More Conditions Fewer Conditions

10-Day Weather Forecast

Almanac

Astronomía

Sep. 01, 2014 Salida Puesta
Hora real 6:21 AM CDT 7:12 PM CDT
Crepúsculo civil 5:55 AM CDT 7:37 PM CDT
Crepúsculo náutico 5:25 AM CDT 8:07 PM CDT
Crepúsculo astronómico 4:55 AM CDT 8:38 PM CDT
Luna 12:46 PM CDT 11:33 PM CDT
Horas de luz 13h 42m
Horas de luz
12h 51m
Tomorrow will be 2m 0s shorter.
Creciente, 41% of the Moon is Illuminated
Hoy
Creciente
Sep 2
Cuarto creciente
Sep 8
Luna llena
Sep 15
Cuarto menguante
Sep 24
Nueva

Extremos de hoy

Máximos del estado Bajos del estado

Community

WunderPhotos

Upload Photos

1,749,222 ¡fotos cargadas!

Nearby

Calidad del aire

  Calidad del aire Índice AQ Contaminante
Ayer Buena
PM10
Ayer Buena
OZONE
Real Moderada
PM2.5
Real Buena
OZONE
Lunes Buena
PM2.5
Lunes Buena
OZONE
Martes Buena
OZONE

Grosos de nieve

Estación Profundido Altura
No tenemos constancia de nieve nueva.

Actividad de terremotos

Ciudad Distance Mag. Tiempo y dato
No hay informes recientes de la actividad sísmica.
Magnitud mínima muestra es 2,5.

Temperaturas de aguas costeras

Lugar Temperatura
Sin partes meteorológicos de las estaciones

Estaciones meteorológicas cercanas